Hlavní strana
METAR-TAF:

METAR-TAF

Letiště :

Caracas, Venezuela

zeměpisná šířka: 10-36N, zeměpisná délka: 066-59W, výška: 43 m

Aktuální stav počasí

Zpráva byla vytvořena před 18 minutami, v 11:02 UTC
Západní vítr 3 kt
Teplota
Tlak 1014 hPa

METAR: SVMI 041102Z AUTO 27003KT NCD ///// Q1014

Čas: 07:20 (11:20 UTC)

Předpověď počasí

Zpráva byla vytvořena před 7 hodinami a 20 minutami, v 04:00 UTC
Předpověď platná od 04 v 06 UTC do 05 v 06 UTC
Východojihovýchodní vítr 6 kt
Viditelnost 10 km a více
Skoro jasno ve výšce 1600 ft
Polojasno ve výšce 27000 ft
Změna
od 04 v 06 UTC do 04 v 10 UTC
Východní vítr 10 kt
Viditelnost 10 km a více
Polojasno ve výšce 1600 ft
Oblačno až skoro zataženo ve výšce 2000 ft

TAF: SVMI 040400Z 0406/0506 11006KT 9999 FEW016 SCT270 TX25/19Z TN22/09Z BECMG 0406/0410 09010KT 9999 SCT016 BKN020

Stav a předpovědi počasí z více než 4 000 letišť (zprávy METAR a TAF).

Červené a žluté tečky na mapě představují dostupné meteorologické stanice.

Když kurzor umístíte na tečku, zobrazí se název stanice.

Pak kliknutím zobrazíte stav a předpověď počasí.

Chcete-li změnit mapu, kliknutím na zelené tlačítko se znaménkem +mapu přiblížíte, kliknutím na zelené tlačítko se znaménkem – mapu oddálíte a kliknutím na zelené šipky přejdete na sousední mapy.


METAR-TAF: